createdAt,value
2023-06-01T00:00:26.163Z,7.52
2023-06-01T00:05:31.213Z,7.44
2023-06-01T00:10:35.002Z,7.46
2023-06-01T00:15:38.542Z,7.45
2023-06-01T00:20:44.220Z,7.43
2023-06-01T00:25:48.033Z,7.38
2023-06-01T00:30:53.000Z,7.36
2023-06-01T00:35:58.820Z,7.27
2023-06-01T00:41:02.518Z,7.09
2023-06-01T00:46:06.556Z,6.96
2023-06-01T00:51:13.722Z,7.00
2023-06-01T00:56:17.254Z,6.93
2023-06-01T01:01:21.123Z,6.90
2023-06-01T01:06:33.476Z,6.81
2023-06-01T01:11:40.667Z,6.73
2023-06-01T01:16:49.104Z,6.82
2023-06-01T01:22:05.064Z,6.83
2023-06-01T01:27:27.283Z,6.91
2023-06-01T01:32:32.307Z,6.92
2023-06-01T01:37:36.124Z,7.03
2023-06-01T01:42:39.795Z,7.09
2023-06-01T01:48:01.219Z,7.27
2023-06-01T01:53:07.386Z,7.36
2023-06-01T01:58:12.007Z,7.56
2023-06-01T02:03:18.194Z,7.69
2023-06-01T02:08:22.000Z,7.80
2023-06-01T02:13:25.680Z,7.97
2023-06-01T02:18:30.944Z,8.18
2023-06-01T02:23:34.460Z,8.19
2023-06-01T02:28:39.724Z,8.76
2023-06-01T02:33:45.065Z,9.02
2023-06-01T02:38:48.920Z,9.14
2023-06-01T02:43:52.935Z,9.34
2023-06-01T02:48:57.978Z,9.60
2023-06-01T02:54:01.941Z,9.82
2023-06-01T02:59:05.540Z,9.85
2023-06-01T03:04:12.294Z,9.95
2023-06-01T03:09:16.786Z,9.99
2023-06-01T03:14:20.296Z,10.25
2023-06-01T03:19:25.289Z,11.03
2023-06-01T03:24:29.276Z,11.85
2023-06-01T03:29:33.518Z,12.51
2023-06-01T03:34:40.135Z,12.99
2023-06-01T03:39:43.713Z,12.94
2023-06-01T03:44:47.299Z,12.93
2023-06-01T03:49:52.265Z,13.09
2023-06-01T03:54:57.154Z,13.74
2023-06-01T04:00:01.674Z,16.27
2023-06-01T04:05:15.252Z,18.43
2023-06-01T04:10:19.136Z,19.78
2023-06-01T04:15:23.278Z,21.19
2023-06-01T04:20:28.349Z,21.81
2023-06-01T04:25:32.731Z,22.73
2023-06-01T04:30:37.265Z,24.91
2023-06-01T04:35:44.812Z,26.17
2023-06-01T04:40:48.509Z,26.22
2023-06-01T04:45:52.617Z,26.49
2023-06-01T04:50:59.025Z,27.50
2023-06-01T04:56:02.886Z,28.52
2023-06-01T05:01:07.841Z,28.98
2023-06-01T05:06:13.609Z,28.46
2023-06-01T05:11:17.264Z,29.29
2023-06-01T05:16:20.901Z,30.58
2023-06-01T05:21:25.908Z,30.71
2023-06-01T05:26:29.588Z,30.72
2023-06-01T05:31:32.949Z,31.78
2023-06-01T05:36:37.894Z,31.74
2023-06-01T05:41:41.734Z,32.34
2023-06-01T05:46:45.259Z,33.05
2023-06-01T05:51:50.209Z,33.52
2023-06-01T05:56:53.826Z,33.96
2023-06-01T06:01:57.622Z,34.30
2023-06-01T06:07:02.637Z,34.77
2023-06-01T06:12:07.351Z,34.04
2023-06-01T06:17:11.011Z,34.59
2023-06-01T06:22:16.250Z,35.01
2023-06-01T06:27:19.806Z,35.19
2023-06-01T06:32:23.659Z,36.61
2023-06-01T06:37:28.860Z,36.77
2023-06-01T06:42:32.490Z,35.67
2023-06-01T06:47:36.062Z,35.82
2023-06-01T06:52:41.218Z,35.55
2023-06-01T06:57:44.740Z,36.20
2023-06-01T07:02:48.540Z,38.05
2023-06-01T07:07:55.094Z,37.10
2023-06-01T07:13:00.064Z,37.54
2023-06-01T07:18:03.689Z,37.35
2023-06-01T07:23:09.261Z,37.92
2023-06-01T07:28:14.311Z,37.10
2023-06-01T07:33:17.890Z,36.55
2023-06-01T07:38:24.023Z,36.06
2023-06-01T07:43:27.532Z,35.88
2023-06-01T07:48:37.174Z,36.31
2023-06-01T07:53:42.220Z,34.57
2023-06-01T07:58:46.324Z,33.30
2023-06-01T08:03:50.014Z,33.25
2023-06-01T08:08:55.133Z,33.90
2023-06-01T08:14:01.203Z,32.38
2023-06-01T08:19:04.810Z,32.99
2023-06-01T08:24:11.787Z,30.76
2023-06-01T08:29:15.319Z,29.71
2023-06-01T08:34:19.247Z,29.85
2023-06-01T08:39:24.744Z,28.39
2023-06-01T08:44:30.387Z,28.03
2023-06-01T08:49:35.121Z,28.20
2023-06-01T08:54:40.603Z,28.74
2023-06-01T08:59:44.638Z,28.34
2023-06-01T09:04:48.412Z,27.89
2023-06-01T09:09:53.544Z,27.20
2023-06-01T09:15:12.106Z,26.22
2023-06-01T09:20:16.436Z,26.52
2023-06-01T09:25:28.242Z,26.66
2023-06-01T09:30:41.406Z,26.43
2023-06-01T09:35:46.706Z,26.09
2023-06-01T09:41:00.802Z,26.36
2023-06-01T09:46:09.270Z,25.33
2023-06-01T09:51:30.541Z,25.40
2023-06-01T09:56:46.595Z,25.71
2023-06-01T10:01:53.501Z,25.62
2023-06-01T10:06:58.225Z,25.47
2023-06-01T10:12:05.124Z,25.29
2023-06-01T10:17:10.704Z,25.52
2023-06-01T10:22:14.760Z,25.57
2023-06-01T10:27:25.004Z,25.12
2023-06-01T10:32:45.533Z,25.57
2023-06-01T10:38:24.857Z,25.16
2023-06-01T10:43:45.423Z,25.11
2023-06-01T10:48:55.924Z,25.40
2023-06-01T10:54:28.372Z,25.10
2023-06-01T10:59:34.756Z,24.92
2023-06-01T11:04:39.048Z,25.07
2023-06-01T11:09:46.946Z,25.07
2023-06-01T11:15:13.921Z,24.86
2023-06-01T11:20:21.701Z,24.39
2023-06-01T11:25:28.994Z,23.80
2023-06-01T11:30:34.003Z,24.08
2023-06-01T11:35:38.034Z,23.94
2023-06-01T11:41:00.397Z,24.22
2023-06-01T11:46:17.959Z,24.39
2023-06-01T11:51:25.633Z,24.01
2023-06-01T11:56:33.188Z,24.26
2023-06-01T12:01:40.109Z,24.06
2023-06-01T12:06:44.416Z,23.92
2023-06-01T12:11:49.137Z,23.87
2023-06-01T12:16:59.032Z,23.77
2023-06-01T12:22:03.330Z,23.84
2023-06-01T12:27:16.199Z,23.63
2023-06-01T12:32:21.580Z,23.89
2023-06-01T12:37:25.601Z,24.11
2023-06-01T12:42:39.236Z,23.88
2023-06-01T12:47:45.187Z,23.66
2023-06-01T12:52:48.867Z,24.03
2023-06-01T12:57:55.367Z,24.31
2023-06-01T13:03:00.382Z,23.93
2023-06-01T13:08:04.140Z,23.97
2023-06-01T13:13:09.450Z,23.90
2023-06-01T13:18:15.154Z,23.74
2023-06-01T13:23:19.353Z,23.68
2023-06-01T13:28:22.960Z,23.90
2023-06-01T13:33:27.955Z,24.15
2023-06-01T13:38:32.087Z,23.83
2023-06-01T13:43:35.705Z,23.77
2023-06-01T13:48:40.660Z,23.50
2023-06-01T13:53:44.196Z,23.77
2023-06-01T13:58:47.895Z,23.77
2023-06-01T14:03:52.960Z,23.65
2023-06-01T14:08:56.645Z,23.43
2023-06-01T14:14:00.200Z,23.14
2023-06-01T14:19:05.352Z,23.08
2023-06-01T14:24:09.452Z,22.87
2023-06-01T14:29:12.711Z,23.02
2023-06-01T14:34:17.730Z,22.97
2023-06-01T14:39:21.324Z,22.91
2023-06-01T14:44:24.865Z,22.82
2023-06-01T14:49:42.893Z,22.60
2023-06-01T14:54:51.219Z,22.65
2023-06-01T15:00:03.511Z,22.81
2023-06-01T15:05:11.988Z,22.99
2023-06-01T15:10:15.583Z,22.96
2023-06-01T15:15:19.203Z,22.87
2023-06-01T15:20:24.155Z,22.77
2023-06-01T15:25:27.779Z,22.60
2023-06-01T15:30:34.063Z,22.66
2023-06-01T15:35:39.104Z,22.70
2023-06-01T15:40:42.682Z,22.65
2023-06-01T15:45:46.539Z,22.62
2023-06-01T15:50:51.665Z,22.51
2023-06-01T15:55:55.243Z,22.42
2023-06-01T16:01:12.692Z,22.30
2023-06-01T16:06:23.566Z,22.11
2023-06-01T16:11:28.091Z,21.96
2023-06-01T16:16:31.739Z,22.00
2023-06-01T16:21:37.147Z,21.85
2023-06-01T16:26:41.972Z,21.46
2023-06-01T16:31:45.566Z,21.54
2023-06-01T16:36:50.634Z,21.33
2023-06-01T16:41:54.214Z,21.31
2023-06-01T16:46:57.711Z,21.15
2023-06-01T16:52:02.667Z,21.08
2023-06-01T16:57:06.921Z,20.83
2023-06-01T17:02:10.320Z,20.70
2023-06-01T17:07:15.271Z,20.45
2023-06-01T17:12:20.546Z,20.23
2023-06-01T17:17:25.953Z,20.20
2023-06-01T17:22:32.270Z,20.10
2023-06-01T17:27:35.934Z,19.90
2023-06-01T17:32:39.615Z,19.71
2023-06-01T17:37:44.653Z,19.60
2023-06-01T17:42:48.216Z,19.42
2023-06-01T17:47:51.803Z,19.27
2023-06-01T17:52:56.889Z,19.05
2023-06-01T17:58:00.436Z,18.85
2023-06-01T18:03:04.095Z,18.55
2023-06-01T18:08:09.085Z,18.53
2023-06-01T18:13:12.668Z,18.34
2023-06-01T18:18:16.282Z,18.23
2023-06-01T18:23:21.400Z,18.08
2023-06-01T18:28:25.003Z,17.95
2023-06-01T18:33:28.538Z,17.84
2023-06-01T18:38:33.864Z,17.73
2023-06-01T18:43:37.460Z,17.60
2023-06-01T18:48:41.054Z,17.45
2023-06-01T18:53:47.214Z,17.41
2023-06-01T18:58:51.932Z,17.25
2023-06-01T19:03:55.572Z,17.07
2023-06-01T19:09:03.809Z,16.89
2023-06-01T19:14:07.382Z,16.65
2023-06-01T19:19:11.237Z,16.42
2023-06-01T19:24:29.001Z,16.22
2023-06-01T19:29:39.756Z,16.06
2023-06-01T19:34:44.127Z,15.88
2023-06-01T19:39:49.162Z,15.71
2023-06-01T19:44:59.770Z,15.60
2023-06-01T19:50:03.637Z,15.38
2023-06-01T19:55:10.354Z,15.27
2023-06-01T20:00:15.096Z,15.08
2023-06-01T20:05:22.653Z,15.02
2023-06-01T20:10:30.956Z,14.85
2023-06-01T20:15:36.836Z,14.74
2023-06-01T20:20:42.636Z,14.60
2023-06-01T20:25:48.914Z,14.31
2023-06-01T20:31:06.776Z,14.37
2023-06-01T20:36:14.088Z,14.25
2023-06-01T20:41:23.674Z,14.11
2023-06-01T20:46:29.776Z,13.89
2023-06-01T20:51:34.922Z,13.92
2023-06-01T20:56:41.506Z,13.88
2023-06-01T21:01:46.586Z,13.89
2023-06-01T21:06:50.224Z,13.83
2023-06-01T21:11:56.957Z,13.81
2023-06-01T21:17:00.730Z,13.86
2023-06-01T21:22:04.653Z,13.87
2023-06-01T21:27:10.151Z,13.94
2023-06-01T21:32:15.706Z,14.04
2023-06-01T21:37:20.046Z,14.11
2023-06-01T21:42:25.105Z,14.12
2023-06-01T21:47:28.823Z,14.07
2023-06-01T21:52:32.511Z,14.01
2023-06-01T21:57:37.634Z,13.92
2023-06-01T22:02:41.826Z,13.87
2023-06-01T22:07:45.626Z,13.87
2023-06-01T22:12:50.727Z,13.86
2023-06-01T22:17:54.672Z,13.78
2023-06-01T22:22:58.839Z,13.83
2023-06-01T22:28:04.187Z,13.87
2023-06-01T22:33:07.840Z,13.87
2023-06-01T22:38:12.507Z,13.89
2023-06-01T22:43:17.244Z,13.77
2023-06-01T22:48:21.821Z,13.60
2023-06-01T22:53:26.093Z,13.64
2023-06-01T22:58:31.149Z,13.45
2023-06-01T23:03:34.932Z,13.45
2023-06-01T23:08:38.791Z,13.41
2023-06-01T23:13:48.282Z,13.37
2023-06-01T23:18:51.961Z,13.32
2023-06-01T23:23:55.604Z,13.26
2023-06-01T23:29:02.295Z,13.17
2023-06-01T23:34:07.503Z,13.04
2023-06-01T23:39:13.774Z,12.97
2023-06-01T23:44:19.051Z,12.80
2023-06-01T23:49:22.691Z,12.64
2023-06-01T23:54:26.463Z,12.60
2023-06-01T23:59:31.702Z,12.45
